sensor_id;sensor_type;location;lat;lon;timestamp;pressure;altitude;pressure_sealevel;temperature;humidity
48089;BME280;33867;50.314;7.802;2023-02-28T00:01:27;101577.03;;;0.13;nan
48089;BME280;33867;50.314;7.802;2023-02-28T00:04:46;101574.88;;;-0.04;nan
48089;BME280;33867;50.314;7.802;2023-02-28T00:08:11;101581.47;;;-0.17;nan
48089;BME280;33867;50.314;7.802;2023-02-28T00:11:31;101577.31;;;-0.57;nan
48089;BME280;33867;50.314;7.802;2023-02-28T00:14:51;101575.28;;;-0.47;nan
48089;BME280;33867;50.314;7.802;2023-02-28T00:18:10;101567.56;;;-0.55;nan
48089;BME280;33867;50.314;7.802;2023-02-28T00:21:30;101578.94;;;-0.84;nan
48089;BME280;33867;50.314;7.802;2023-02-28T00:24:49;101572.72;;;-0.83;nan
48089;BME280;33867;50.314;7.802;2023-02-28T00:28:08;101574.50;;;-0.83;nan
48089;BME280;33867;50.314;7.802;2023-02-28T00:31:27;101578.44;;;-0.98;nan
48089;BME280;33867;50.314;7.802;2023-02-28T00:34:46;101582.94;;;-1.02;nan
48089;BME280;33867;50.314;7.802;2023-02-28T00:38:07;101577.56;;;-1.33;nan
48089;BME280;33867;50.314;7.802;2023-02-28T00:41:27;101583.53;;;-1.25;nan
48089;BME280;33867;50.314;7.802;2023-02-28T00:44:46;101583.81;;;-1.35;nan
48089;BME280;33867;50.314;7.802;2023-02-28T00:48:05;101581.19;;;-1.37;nan
48089;BME280;33867;50.314;7.802;2023-02-28T00:51:25;101587.34;;;-1.36;nan
48089;BME280;33867;50.314;7.802;2023-02-28T00:54:44;101580.63;;;-1.50;nan
48089;BME280;33867;50.314;7.802;2023-02-28T00:58:03;101581.53;;;-1.51;nan
48089;BME280;33867;50.314;7.802;2023-02-28T01:01:22;101580.47;;;-1.42;nan
48089;BME280;33867;50.314;7.802;2023-02-28T01:04:41;101577.84;;;-1.43;nan
48089;BME280;33867;50.314;7.802;2023-02-28T01:08:00;101588.38;;;-1.42;nan
48089;BME280;33867;50.314;7.802;2023-02-28T01:11:19;101585.84;;;-1.47;nan
48089;BME280;33867;50.314;7.802;2023-02-28T01:14:38;101583.28;;;-1.50;nan
48089;BME280;33867;50.314;7.802;2023-02-28T01:17:57;101576.44;;;-1.58;nan
48089;BME280;33867;50.314;7.802;2023-02-28T01:21:18;101583.53;;;-1.60;nan
48089;BME280;33867;50.314;7.802;2023-02-28T01:24:37;101581.19;;;-1.72;nan
48089;BME280;33867;50.314;7.802;2023-02-28T01:27:56;101575.00;;;-1.71;nan
48089;BME280;33867;50.314;7.802;2023-02-28T01:31:16;101585.72;;;-1.78;nan
48089;BME280;33867;50.314;7.802;2023-02-28T01:34:35;101585.47;;;-1.68;nan
48089;BME280;33867;50.314;7.802;2023-02-28T01:37:56;101585.38;;;-1.64;nan
48089;BME280;33867;50.314;7.802;2023-02-28T01:41:21;101583.03;;;-1.76;nan
48089;BME280;33867;50.314;7.802;2023-02-28T01:45:01;101587.56;;;-1.83;nan
48089;BME280;33867;50.314;7.802;2023-02-28T01:48:33;101580.44;;;-1.78;nan
48089;BME280;33867;50.314;7.802;2023-02-28T01:51:55;101572.47;;;-1.76;nan
48089;BME280;33867;50.314;7.802;2023-02-28T01:55:17;101578.34;;;-1.63;nan
48089;BME280;33867;50.314;7.802;2023-02-28T01:58:37;101573.91;;;-1.63;nan
48089;BME280;33867;50.314;7.802;2023-02-28T02:01:56;101571.03;;;-1.52;nan
48089;BME280;33867;50.314;7.802;2023-02-28T02:05:18;101573.97;;;-1.66;nan
48089;BME280;33867;50.314;7.802;2023-02-28T02:08:38;101574.34;;;-1.81;nan
48089;BME280;33867;50.314;7.802;2023-02-28T02:12:05;101575.47;;;-1.93;nan
48089;BME280;33867;50.314;7.802;2023-02-28T02:15:39;101577.09;;;-1.86;nan
48089;BME280;33867;50.314;7.802;2023-02-28T02:19:28;101560.59;;;-1.95;nan
48089;BME280;33867;50.314;7.802;2023-02-28T02:23:08;101559.53;;;-1.87;nan
48089;BME280;33867;50.314;7.802;2023-02-28T02:27:03;101556.09;;;-1.92;nan
48089;BME280;33867;50.314;7.802;2023-02-28T02:30:45;101560.03;;;-2.10;nan
48089;BME280;33867;50.314;7.802;2023-02-28T02:41:51;101561.25;;;-2.26;nan
48089;BME280;33867;50.314;7.802;2023-02-28T02:45:32;101552.41;;;-2.22;nan
48089;BME280;33867;50.314;7.802;2023-02-28T02:48:57;101560.50;;;-2.31;nan
48089;BME280;33867;50.314;7.802;2023-02-28T02:52:23;101565.13;;;-2.42;nan
48089;BME280;33867;50.314;7.802;2023-02-28T02:55:47;101569.44;;;-2.37;nan
48089;BME280;33867;50.314;7.802;2023-02-28T02:59:14;101569.50;;;-2.41;nan
48089;BME280;33867;50.314;7.802;2023-02-28T03:02:36;101569.47;;;-2.40;nan
48089;BME280;33867;50.314;7.802;2023-02-28T03:05:59;101567.00;;;-2.47;nan
48089;BME280;33867;50.314;7.802;2023-02-28T03:09:18;101561.59;;;-2.41;nan
48089;BME280;33867;50.314;7.802;2023-02-28T03:12:51;101562.38;;;-2.36;nan
48089;BME280;33867;50.314;7.802;2023-02-28T03:16:27;101564.22;;;-2.41;nan
48089;BME280;33867;50.314;7.802;2023-02-28T03:23:35;101569.72;;;-2.52;nan
48089;BME280;33867;50.314;7.802;2023-02-28T03:27:07;101568.19;;;-2.63;nan
48089;BME280;33867;50.314;7.802;2023-02-28T03:30:34;101570.91;;;-2.67;nan
48089;BME280;33867;50.314;7.802;2023-02-28T03:34:23;101570.06;;;-2.69;nan
48089;BME280;33867;50.314;7.802;2023-02-28T03:37:44;101574.38;;;-2.65;nan
48089;BME280;33867;50.314;7.802;2023-02-28T03:41:12;101572.53;;;-2.59;nan
48089;BME280;33867;50.314;7.802;2023-02-28T03:44:43;101582.41;;;-2.71;nan
48089;BME280;33867;50.314;7.802;2023-02-28T03:48:09;101565.00;;;-2.79;nan
48089;BME280;33867;50.314;7.802;2023-02-28T03:51:31;101576.09;;;-2.63;nan
48089;BME280;33867;50.314;7.802;2023-02-28T03:54:54;101573.44;;;-2.62;nan
48089;BME280;33867;50.314;7.802;2023-02-28T03:58:27;101579.13;;;-2.82;nan
48089;BME280;33867;50.314;7.802;2023-02-28T04:01:48;101576.59;;;-2.88;nan
48089;BME280;33867;50.314;7.802;2023-02-28T04:05:08;101581.13;;;-2.95;nan
48089;BME280;33867;50.314;7.802;2023-02-28T04:08:27;101582.88;;;-2.97;nan
48089;BME280;33867;50.314;7.802;2023-02-28T04:11:53;101578.59;;;-3.02;nan
48089;BME280;33867;50.314;7.802;2023-02-28T04:15:12;101576.81;;;-3.00;nan
48089;BME280;33867;50.314;7.802;2023-02-28T04:18:31;101580.25;;;-2.95;nan
48089;BME280;33867;50.314;7.802;2023-02-28T04:21:52;101585.53;;;-2.95;nan
48089;BME280;33867;50.314;7.802;2023-02-28T04:25:11;101584.75;;;-3.02;nan
48089;BME280;33867;50.314;7.802;2023-02-28T04:28:30;101587.06;;;-2.85;nan
48089;BME280;33867;50.314;7.802;2023-02-28T04:31:50;101585.31;;;-2.86;nan
48089;BME280;33867;50.314;7.802;2023-02-28T04:35:09;101587.06;;;-2.85;nan
48089;BME280;33867;50.314;7.802;2023-02-28T04:38:38;101596.06;;;-2.97;nan
48089;BME280;33867;50.314;7.802;2023-02-28T04:41:58;101587.59;;;-3.14;nan
48089;BME280;33867;50.314;7.802;2023-02-28T04:45:17;101585.00;;;-3.15;nan
48089;BME280;33867;50.314;7.802;2023-02-28T04:48:38;101591.34;;;-3.27;nan
48089;BME280;33867;50.314;7.802;2023-02-28T04:51:57;101581.63;;;-3.24;nan
48089;BME280;33867;50.314;7.802;2023-02-28T04:55:16;101587.00;;;-3.30;nan
48089;BME280;33867;50.314;7.802;2023-02-28T04:58:35;101590.13;;;-3.09;nan
48089;BME280;33867;50.314;7.802;2023-02-28T05:01:54;101586.66;;;-3.11;nan
48089;BME280;33867;50.314;7.802;2023-02-28T05:05:13;101592.91;;;-3.15;nan
48089;BME280;33867;50.314;7.802;2023-02-28T05:08:36;101593.97;;;-3.27;nan
48089;BME280;33867;50.314;7.802;2023-02-28T05:11:55;101593.84;;;-3.19;nan
48089;BME280;33867;50.314;7.802;2023-02-28T05:15:16;101600.97;;;-3.26;nan
48089;BME280;33867;50.314;7.802;2023-02-28T05:18:36;101594.75;;;-3.22;nan
48089;BME280;33867;50.314;7.802;2023-02-28T05:21:55;101604.56;;;-3.30;nan
48089;BME280;33867;50.314;7.802;2023-02-28T05:25:19;101597.56;;;-3.33;nan
48089;BME280;33867;50.314;7.802;2023-02-28T05:28:38;101596.78;;;-3.38;nan
48089;BME280;33867;50.314;7.802;2023-02-28T05:31:57;101598.66;;;-3.46;nan
48089;BME280;33867;50.314;7.802;2023-02-28T05:35:16;101604.56;;;-3.30;nan
48089;BME280;33867;50.314;7.802;2023-02-28T05:38:35;101611.69;;;-3.37;nan
48089;BME280;33867;50.314;7.802;2023-02-28T05:41:55;101603.81;;;-3.38;nan
48089;BME280;33867;50.314;7.802;2023-02-28T05:45:14;101601.28;;;-3.43;nan
48089;BME280;33867;50.314;7.802;2023-02-28T05:48:35;101608.38;;;-3.49;nan
48089;BME280;33867;50.314;7.802;2023-02-28T05:51:54;101608.47;;;-3.56;nan
48089;BME280;33867;50.314;7.802;2023-02-28T05:55:13;101603.91;;;-3.44;nan
48089;BME280;33867;50.314;7.802;2023-02-28T05:58:32;101605.66;;;-3.45;nan
48089;BME280;33867;50.314;7.802;2023-02-28T06:01:52;101610.13;;;-3.48;nan
48089;BME280;33867;50.314;7.802;2023-02-28T06:05:17;101609.16;;;-3.43;nan
48089;BME280;33867;50.314;7.802;2023-02-28T06:08:36;101613.53;;;-3.42;nan
48089;BME280;33867;50.314;7.802;2023-02-28T06:11:58;101609.19;;;-3.46;nan
48089;BME280;33867;50.314;7.802;2023-02-28T06:15:17;101609.66;;;-3.21;nan
48089;BME280;33867;50.314;7.802;2023-02-28T06:18:36;101606.06;;;-3.15;nan
48089;BME280;33867;50.314;7.802;2023-02-28T06:21:56;101618.81;;;-2.91;nan
48089;BME280;33867;50.314;7.802;2023-02-28T06:25:16;101621.19;;;-2.77;nan
48089;BME280;33867;50.314;7.802;2023-02-28T06:28:35;101623.69;;;-2.70;nan
48089;BME280;33867;50.314;7.802;2023-02-28T06:31:54;101621.53;;;-2.48;nan
48089;BME280;33867;50.314;7.802;2023-02-28T06:35:13;101633.53;;;-2.33;nan
48089;BME280;33867;50.314;7.802;2023-02-28T06:38:33;101631.97;;;-2.43;nan
48089;BME280;33867;50.314;7.802;2023-02-28T06:41:52;101630.97;;;-2.36;nan
48089;BME280;33867;50.314;7.802;2023-02-28T06:45:11;101636.16;;;-2.33;nan
48089;BME280;33867;50.314;7.802;2023-02-28T06:48:31;101630.56;;;-2.18;nan
48089;BME280;33867;50.314;7.802;2023-02-28T06:51:51;101633.34;;;-2.24;nan
48089;BME280;33867;50.314;7.802;2023-02-28T06:55:10;101645.41;;;-2.14;nan
48089;BME280;33867;50.314;7.802;2023-02-28T06:58:29;101646.53;;;-2.25;nan
48089;BME280;33867;50.314;7.802;2023-02-28T07:01:49;101639.28;;;-2.14;nan
48089;BME280;33867;50.314;7.802;2023-02-28T07:05:08;101645.75;;;-2.29;nan
48089;BME280;33867;50.314;7.802;2023-02-28T07:08:27;101643.50;;;-2.06;nan
48089;BME280;33867;50.314;7.802;2023-02-28T07:11:46;101641.44;;;-1.91;nan
48089;BME280;33867;50.314;7.802;2023-02-28T07:15:06;101640.56;;;-1.92;nan
48089;BME280;33867;50.314;7.802;2023-02-28T07:18:25;101641.97;;;-1.75;nan
48089;BME280;33867;50.314;7.802;2023-02-28T07:21:45;101640.28;;;-1.80;nan
48089;BME280;33867;50.314;7.802;2023-02-28T07:25:05;101655.69;;;-1.98;nan
48089;BME280;33867;50.314;7.802;2023-02-28T07:28:25;101646.94;;;-2.02;nan
48089;BME280;33867;50.314;7.802;2023-02-28T07:31:44;101646.56;;;-1.84;nan
48089;BME280;33867;50.314;7.802;2023-02-28T07:35:03;101647.13;;;-1.69;nan
48089;BME280;33867;50.314;7.802;2023-02-28T07:38:22;101645.25;;;-1.64;nan
48089;BME280;33867;50.314;7.802;2023-02-28T07:41:41;101643.28;;;-1.19;nan
48089;BME280;33867;50.314;7.802;2023-02-28T07:45:02;101648.94;;;-0.99;nan
48089;BME280;33867;50.314;7.802;2023-02-28T07:48:21;101642.84;;;-0.67;nan
48089;BME280;33867;50.314;7.802;2023-02-28T07:51:40;101642.44;;;-0.53;nan
48089;BME280;33867;50.314;7.802;2023-02-28T07:54:59;101646.78;;;-0.50;nan
48089;BME280;33867;50.314;7.802;2023-02-28T07:58:18;101642.88;;;-0.37;nan
48089;BME280;33867;50.314;7.802;2023-02-28T08:01:38;101638.88;;;-0.19;nan
48089;BME280;33867;50.314;7.802;2023-02-28T08:04:57;101639.53;;;-0.13;nan
48089;BME280;33867;50.314;7.802;2023-02-28T08:08:16;101641.94;;;-0.04;nan
48089;BME280;33867;50.314;7.802;2023-02-28T08:11:35;101631.13;;;0.04;nan
48089;BME280;33867;50.314;7.802;2023-02-28T08:14:55;101644.47;;;0.01;nan
48089;BME280;33867;50.314;7.802;2023-02-28T08:18:14;101626.44;;;-0.17;nan
48089;BME280;33867;50.314;7.802;2023-02-28T08:21:33;101631.59;;;-0.13;nan
48089;BME280;33867;50.314;7.802;2023-02-28T08:24:52;101635.72;;;-0.03;nan
48089;BME280;33867;50.314;7.802;2023-02-28T08:28:12;101625.56;;;0.13;nan
48089;BME280;33867;50.314;7.802;2023-02-28T08:31:31;101623.84;;;0.12;nan
48089;BME280;33867;50.314;7.802;2023-02-28T08:34:50;101628.22;;;0.12;nan
48089;BME280;33867;50.314;7.802;2023-02-28T08:38:09;101627.97;;;0.21;nan
48089;BME280;33867;50.314;7.802;2023-02-28T08:41:28;101623.78;;;0.14;nan
48089;BME280;33867;50.314;7.802;2023-02-28T08:44:47;101625.38;;;0.19;nan
48089;BME280;33867;50.314;7.802;2023-02-28T08:48:06;101619.59;;;0.35;nan
48089;BME280;33867;50.314;7.802;2023-02-28T08:51:26;101622.81;;;0.44;nan
48089;BME280;33867;50.314;7.802;2023-02-28T08:54:45;101625.13;;;0.55;nan
48089;BME280;33867;50.314;7.802;2023-02-28T08:58:04;101617.81;;;0.63;nan
48089;BME280;33867;50.314;7.802;2023-02-28T09:01:25;101614.66;;;0.78;nan
48089;BME280;33867;50.314;7.802;2023-02-28T09:04:46;101620.41;;;0.91;nan
48089;BME280;33867;50.314;7.802;2023-02-28T09:08:05;101613.25;;;0.93;nan
48089;BME280;33867;50.314;7.802;2023-02-28T09:11:24;101616.16;;;1.12;nan
48089;BME280;33867;50.314;7.802;2023-02-28T09:14:43;101624.69;;;1.22;nan
48089;BME280;33867;50.314;7.802;2023-02-28T09:18:02;101608.81;;;1.20;nan
48089;BME280;33867;50.314;7.802;2023-02-28T09:21:21;101620.84;;;1.30;nan
48089;BME280;33867;50.314;7.802;2023-02-28T09:24:41;101596.75;;;1.36;nan
48089;BME280;33867;50.314;7.802;2023-02-28T09:27:59;101608.81;;;1.45;nan
48089;BME280;33867;50.314;7.802;2023-02-28T09:31:22;101598.69;;;1.56;nan
48089;BME280;33867;50.314;7.802;2023-02-28T09:34:42;101599.72;;;1.75;nan
48089;BME280;33867;50.314;7.802;2023-02-28T09:38:01;101611.91;;;1.58;nan
48089;BME280;33867;50.314;7.802;2023-02-28T09:41:23;101598.72;;;1.80;nan
48089;BME280;33867;50.314;7.802;2023-02-28T09:44:45;101609.81;;;1.89;nan
48089;BME280;33867;50.314;7.802;2023-02-28T09:48:23;101618.50;;;2.18;nan
48089;BME280;33867;50.314;7.802;2023-02-28T09:52:20;101598.47;;;2.31;nan
48089;BME280;33867;50.314;7.802;2023-02-28T09:55:48;101605.28;;;2.38;nan
48089;BME280;33867;50.314;7.802;2023-02-28T09:59:27;101583.41;;;2.53;nan
48089;BME280;33867;50.314;7.802;2023-02-28T10:09:35;101583.50;;;3.35;nan
48089;BME280;33867;50.314;7.802;2023-02-28T10:12:58;101593.72;;;3.03;nan
48089;BME280;33867;50.314;7.802;2023-02-28T10:16:23;101603.53;;;3.23;nan
48089;BME280;33867;50.314;7.802;2023-02-28T10:20:02;101595.19;;;3.51;nan
48089;BME280;33867;50.314;7.802;2023-02-28T10:23:34;101591.78;;;4.24;nan
48089;BME280;33867;50.314;7.802;2023-02-28T10:26:59;101599.03;;;3.64;nan
48089;BME280;33867;50.314;7.802;2023-02-28T10:30:19;101602.53;;;3.46;nan
48089;BME280;33867;50.314;7.802;2023-02-28T10:33:38;101597.28;;;4.21;nan
48089;BME280;33867;50.314;7.802;2023-02-28T10:36:58;101603.75;;;3.97;nan
48089;BME280;33867;50.314;7.802;2023-02-28T10:40:34;101611.44;;;3.25;nan
48089;BME280;33867;50.314;7.802;2023-02-28T10:44:22;101601.00;;;4.36;nan
48089;BME280;33867;50.314;7.802;2023-02-28T10:47:59;101586.88;;;6.23;nan
48089;BME280;33867;50.314;7.802;2023-02-28T10:51:19;101589.28;;;7.49;nan
48089;BME280;33867;50.314;7.802;2023-02-28T10:54:38;101585.84;;;7.47;nan
48089;BME280;33867;50.314;7.802;2023-02-28T10:57:57;101590.16;;;8.62;nan
48089;BME280;33867;50.314;7.802;2023-02-28T11:01:33;101589.06;;;9.31;nan
48089;BME280;33867;50.314;7.802;2023-02-28T11:09:39;101580.50;;;7.89;nan
48089;BME280;33867;50.314;7.802;2023-02-28T11:13:00;101586.22;;;7.55;nan
48089;BME280;33867;50.314;7.802;2023-02-28T11:16:20;101573.38;;;8.03;nan
48089;BME280;33867;50.314;7.802;2023-02-28T11:19:44;101579.41;;;9.66;nan
48089;BME280;33867;50.314;7.802;2023-02-28T11:23:05;101583.56;;;9.20;nan
48089;BME280;33867;50.314;7.802;2023-02-28T11:26:43;101581.16;;;7.93;nan
48089;BME280;33867;50.314;7.802;2023-02-28T11:37:13;101578.00;;;7.72;nan
48089;BME280;33867;50.314;7.802;2023-02-28T11:40:48;101572.16;;;5.82;nan
48089;BME280;33867;50.314;7.802;2023-02-28T11:48:19;101552.78;;;8.98;nan
48089;BME280;33867;50.314;7.802;2023-02-28T11:52:02;101548.88;;;7.80;nan
48089;BME280;33867;50.314;7.802;2023-02-28T11:55:38;101554.66;;;7.01;nan
48089;BME280;33867;50.314;7.802;2023-02-28T12:06:36;101548.81;;;6.02;nan
48089;BME280;33867;50.314;7.802;2023-02-28T12:10:06;101548.16;;;7.06;nan
48089;BME280;33867;50.314;7.802;2023-02-28T12:13:48;101554.00;;;8.26;nan
48089;BME280;33867;50.314;7.802;2023-02-28T12:17:27;101540.19;;;6.90;nan
48089;BME280;33867;50.314;7.802;2023-02-28T12:27:53;101530.13;;;8.63;nan
48089;BME280;33867;50.314;7.802;2023-02-28T12:31:21;101540.84;;;7.95;nan
48089;BME280;33867;50.314;7.802;2023-02-28T12:34:46;101544.22;;;8.25;nan
48089;BME280;33867;50.314;7.802;2023-02-28T12:38:14;101522.06;;;7.80;nan
48089;BME280;33867;50.314;7.802;2023-02-28T12:41:45;101530.72;;;8.27;nan
48089;BME280;33867;50.314;7.802;2023-02-28T12:45:05;101523.53;;;8.41;nan
48089;BME280;33867;50.314;7.802;2023-02-28T12:48:35;101517.81;;;8.73;nan
48089;BME280;33867;50.314;7.802;2023-02-28T12:51:55;101537.38;;;7.92;nan
48089;BME280;33867;50.314;7.802;2023-02-28T12:55:21;101518.84;;;8.58;nan
48089;BME280;33867;50.314;7.802;2023-02-28T12:58:53;101507.91;;;9.26;nan
48089;BME280;33867;50.314;7.802;2023-02-28T13:09:39;101525.00;;;9.50;nan
48089;BME280;33867;50.314;7.802;2023-02-28T13:13:02;101515.47;;;10.08;nan
48089;BME280;33867;50.314;7.802;2023-02-28T13:16:21;101517.88;;;9.75;nan
48089;BME280;33867;50.314;7.802;2023-02-28T13:19:44;101529.13;;;8.51;nan
48089;BME280;33867;50.314;7.802;2023-02-28T13:34:14;101509.06;;;7.46;nan
48089;BME280;33867;50.314;7.802;2023-02-28T13:37:43;101517.88;;;7.62;nan
48089;BME280;33867;50.314;7.802;2023-02-28T13:48:23;101492.97;;;9.22;nan
48089;BME280;33867;50.314;7.802;2023-02-28T13:51:49;101513.44;;;6.74;nan
48089;BME280;33867;50.314;7.802;2023-02-28T13:55:24;101515.91;;;7.07;nan
48089;BME280;33867;50.314;7.802;2023-02-28T13:59:15;101512.59;;;8.44;nan
48089;BME280;33867;50.314;7.802;2023-02-28T14:03:06;101508.34;;;8.40;nan
48089;BME280;33867;50.314;7.802;2023-02-28T14:06:30;101501.94;;;8.29;nan
48089;BME280;33867;50.314;7.802;2023-02-28T14:10:25;101507.22;;;7.89;nan
48089;BME280;33867;50.314;7.802;2023-02-28T14:13:46;101510.72;;;8.18;nan
48089;BME280;33867;50.314;7.802;2023-02-28T14:17:08;101505.63;;;7.29;nan
48089;BME280;33867;50.314;7.802;2023-02-28T14:20:32;101493.44;;;8.36;nan
48089;BME280;33867;50.314;7.802;2023-02-28T14:24:03;101505.97;;;7.80;nan
48089;BME280;33867;50.314;7.802;2023-02-28T14:27:49;101503.75;;;6.87;nan
48089;BME280;33867;50.314;7.802;2023-02-28T14:31:29;101494.38;;;8.62;nan
48089;BME280;33867;50.314;7.802;2023-02-28T14:38:31;101489.06;;;8.21;nan
48089;BME280;33867;50.314;7.802;2023-02-28T14:41:50;101487.25;;;7.66;nan
48089;BME280;33867;50.314;7.802;2023-02-28T14:45:18;101485.31;;;8.24;nan
48089;BME280;33867;50.314;7.802;2023-02-28T14:48:38;101479.56;;;8.57;nan
48089;BME280;33867;50.314;7.802;2023-02-28T14:52:12;101485.91;;;7.30;nan
48089;BME280;33867;50.314;7.802;2023-02-28T14:55:35;101481.97;;;6.63;nan
48089;BME280;33867;50.314;7.802;2023-02-28T14:58:57;101471.84;;;7.55;nan
48089;BME280;33867;50.314;7.802;2023-02-28T15:02:25;101483.94;;;7.89;nan
48089;BME280;33867;50.314;7.802;2023-02-28T15:05:59;101481.91;;;7.38;nan
48089;BME280;33867;50.314;7.802;2023-02-28T15:09:18;101489.25;;;7.06;nan
48089;BME280;33867;50.314;7.802;2023-02-28T15:12:39;101486.72;;;5.97;nan
48089;BME280;33867;50.314;7.802;2023-02-28T15:16:02;101478.41;;;6.63;nan
48089;BME280;33867;50.314;7.802;2023-02-28T15:19:29;101481.28;;;5.82;nan
48089;BME280;33867;50.314;7.802;2023-02-28T15:22:50;101485.38;;;6.51;nan
48089;BME280;33867;50.314;7.802;2023-02-28T15:26:15;101486.44;;;6.63;nan
48089;BME280;33867;50.314;7.802;2023-02-28T15:29:44;101490.28;;;5.80;nan
48089;BME280;33867;50.314;7.802;2023-02-28T15:36:32;101488.94;;;5.88;nan
48089;BME280;33867;50.314;7.802;2023-02-28T15:39:53;101485.91;;;5.63;nan
48089;BME280;33867;50.314;7.802;2023-02-28T15:43:15;101500.91;;;5.66;nan
48089;BME280;33867;50.314;7.802;2023-02-28T15:46:35;101484.00;;;5.65;nan
48089;BME280;33867;50.314;7.802;2023-02-28T15:50:08;101482.47;;;5.61;nan
48089;BME280;33867;50.314;7.802;2023-02-28T15:53:33;101481.31;;;5.49;nan
48089;BME280;33867;50.314;7.802;2023-02-28T15:57:03;101493.81;;;5.16;nan
48089;BME280;33867;50.314;7.802;2023-02-28T16:00:25;101500.19;;;5.13;nan
48089;BME280;33867;50.314;7.802;2023-02-28T16:03:47;101498.53;;;5.44;nan
48089;BME280;33867;50.314;7.802;2023-02-28T16:07:12;101498.31;;;4.63;nan
48089;BME280;33867;50.314;7.802;2023-02-28T16:10:31;101496.19;;;4.70;nan
48089;BME280;33867;50.314;7.802;2023-02-28T16:13:51;101496.44;;;4.65;nan
48089;BME280;33867;50.314;7.802;2023-02-28T16:17:23;101500.44;;;4.74;nan
48089;BME280;33867;50.314;7.802;2023-02-28T16:20:43;101499.09;;;4.83;nan
48089;BME280;33867;50.314;7.802;2023-02-28T16:24:03;101496.97;;;4.72;nan
48089;BME280;33867;50.314;7.802;2023-02-28T16:27:31;101503.56;;;4.82;nan
48089;BME280;33867;50.314;7.802;2023-02-28T16:30:51;101501.78;;;4.65;nan
48089;BME280;33867;50.314;7.802;2023-02-28T16:34:11;101504.91;;;4.39;nan
48089;BME280;33867;50.314;7.802;2023-02-28T16:37:30;101506.03;;;4.33;nan
48089;BME280;33867;50.314;7.802;2023-02-28T16:40:50;101509.66;;;4.32;nan
48089;BME280;33867;50.314;7.802;2023-02-28T16:44:13;101507.59;;;4.20;nan
48089;BME280;33867;50.314;7.802;2023-02-28T16:47:32;101513.78;;;4.21;nan
48089;BME280;33867;50.314;7.802;2023-02-28T16:50:52;101524.41;;;4.03;nan
48089;BME280;33867;50.314;7.802;2023-02-28T16:54:11;101524.03;;;3.73;nan
48089;BME280;33867;50.314;7.802;2023-02-28T16:57:30;101520.22;;;3.60;nan
48089;BME280;33867;50.314;7.802;2023-02-28T17:00:49;101526.50;;;3.39;nan
48089;BME280;33867;50.314;7.802;2023-02-28T17:04:10;101529.19;;;3.18;nan
48089;BME280;33867;50.314;7.802;2023-02-28T17:07:29;101533.97;;;3.31;nan
48089;BME280;33867;50.314;7.802;2023-02-28T17:10:48;101531.09;;;2.96;nan
48089;BME280;33867;50.314;7.802;2023-02-28T17:14:07;101543.56;;;2.94;nan
48089;BME280;33867;50.314;7.802;2023-02-28T17:17:28;101539.38;;;2.88;nan
48089;BME280;33867;50.314;7.802;2023-02-28T17:20:48;101543.09;;;2.42;nan
48089;BME280;33867;50.314;7.802;2023-02-28T17:24:07;101555.66;;;2.17;nan
48089;BME280;33867;50.314;7.802;2023-02-28T17:27:27;101557.59;;;2.12;nan
48089;BME280;33867;50.314;7.802;2023-02-28T17:30:46;101570.34;;;2.03;nan
48089;BME280;33867;50.314;7.802;2023-02-28T17:34:06;101565.50;;;1.68;nan
48089;BME280;33867;50.314;7.802;2023-02-28T17:37:25;101576.13;;;1.44;nan
48089;BME280;33867;50.314;7.802;2023-02-28T17:40:44;101578.97;;;1.38;nan
48089;BME280;33867;50.314;7.802;2023-02-28T17:44:04;101581.41;;;1.44;nan
48089;BME280;33867;50.314;7.802;2023-02-28T17:47:23;101591.84;;;1.49;nan
48089;BME280;33867;50.314;7.802;2023-02-28T17:50:42;101588.84;;;1.35;nan
48089;BME280;33867;50.314;7.802;2023-02-28T17:54:01;101591.31;;;1.39;nan
48089;BME280;33867;50.314;7.802;2023-02-28T17:57:21;101598.09;;;1.23;nan
48089;BME280;33867;50.314;7.802;2023-02-28T18:00:39;101597.22;;;0.98;nan
48089;BME280;33867;50.314;7.802;2023-02-28T18:03:59;101606.41;;;0.87;nan
48089;BME280;33867;50.314;7.802;2023-02-28T18:07:19;101597.88;;;0.78;nan
48089;BME280;33867;50.314;7.802;2023-02-28T18:10:39;101603.59;;;0.66;nan
48089;BME280;33867;50.314;7.802;2023-02-28T18:13:58;101603.34;;;0.73;nan
48089;BME280;33867;50.314;7.802;2023-02-28T18:17:18;101607.38;;;0.57;nan
48089;BME280;33867;50.314;7.802;2023-02-28T18:20:37;101606.66;;;0.25;nan
48089;BME280;33867;50.314;7.802;2023-02-28T18:23:56;101614.16;;;0.39;nan
48089;BME280;33867;50.314;7.802;2023-02-28T18:27:15;101609.03;;;0.05;nan
48089;BME280;33867;50.314;7.802;2023-02-28T18:30:36;101615.72;;;0.17;nan
48089;BME280;33867;50.314;7.802;2023-02-28T18:33:55;101613.75;;;0.23;nan
48089;BME280;33867;50.314;7.802;2023-02-28T18:37:14;101605.81;;;0.23;nan
48089;BME280;33867;50.314;7.802;2023-02-28T18:40:34;101616.16;;;0.03;nan
48089;BME280;33867;50.314;7.802;2023-02-28T18:43:53;101618.00;;;-0.01;nan
48089;BME280;33867;50.314;7.802;2023-02-28T18:47:12;101615.59;;;-0.08;nan
48089;BME280;33867;50.314;7.802;2023-02-28T18:50:31;101613.22;;;-0.17;nan
48089;BME280;33867;50.314;7.802;2023-02-28T18:53:51;101621.06;;;-0.14;nan
48089;BME280;33867;50.314;7.802;2023-02-28T18:57:10;101607.03;;;-0.47;nan
48089;BME280;33867;50.314;7.802;2023-02-28T19:00:29;101613.66;;;-0.33;nan
48089;BME280;33867;50.314;7.802;2023-02-28T19:03:49;101603.03;;;-0.31;nan
48089;BME280;33867;50.314;7.802;2023-02-28T19:07:08;101609.25;;;-0.32;nan
48089;BME280;33867;50.314;7.802;2023-02-28T19:10:27;101616.81;;;-0.83;nan
48089;BME280;33867;50.314;7.802;2023-02-28T19:13:47;101617.94;;;-0.60;nan
48089;BME280;33867;50.314;7.802;2023-02-28T19:17:06;101612.09;;;-0.71;nan
48089;BME280;33867;50.314;7.802;2023-02-28T19:20:25;101623.59;;;-0.73;nan
48089;BME280;33867;50.314;7.802;2023-02-28T19:23:45;101623.09;;;-0.88;nan
48089;BME280;33867;50.314;7.802;2023-02-28T19:27:04;101619.44;;;-0.82;nan
48089;BME280;33867;50.314;7.802;2023-02-28T19:30:23;101627.56;;;-0.90;nan
48089;BME280;33867;50.314;7.802;2023-02-28T19:33:43;101632.00;;;-0.90;nan
48089;BME280;33867;50.314;7.802;2023-02-28T19:37:02;101634.81;;;-0.98;nan
48089;BME280;33867;50.314;7.802;2023-02-28T19:40:21;101625.97;;;-0.97;nan